createdAt,value
2023-03-20T00:01:18.789Z,99.90
2023-03-20T00:03:47.882Z,99.90
2023-03-20T00:06:31.614Z,99.90
2023-03-20T00:09:06.881Z,99.90
2023-03-20T00:11:58.265Z,99.90
2023-03-20T00:14:28.625Z,99.90
2023-03-20T00:16:57.804Z,99.90
2023-03-20T00:19:33.505Z,99.90
2023-03-20T00:22:03.749Z,99.90
2023-03-20T00:24:39.188Z,99.90
2023-03-20T00:27:11.988Z,99.90
2023-03-20T00:29:41.185Z,99.90
2023-03-20T00:32:20.188Z,99.90
2023-03-20T00:34:48.560Z,99.90
2023-03-20T00:37:15.784Z,99.90
2023-03-20T00:39:54.601Z,99.90
2023-03-20T00:42:25.323Z,99.90
2023-03-20T00:45:02.489Z,99.90
2023-03-20T00:47:37.475Z,99.90
2023-03-20T00:50:30.322Z,99.90
2023-03-20T00:53:08.897Z,99.90
2023-03-20T00:55:39.794Z,99.90
2023-03-20T00:58:08.306Z,99.90
2023-03-20T01:00:48.372Z,99.90
2023-03-20T01:03:27.308Z,99.90
2023-03-20T01:06:29.625Z,99.90
2023-03-20T01:08:58.510Z,99.90
2023-03-20T01:11:27.258Z,99.90
2023-03-20T01:14:00.272Z,99.90
2023-03-20T01:16:37.862Z,99.90
2023-03-20T01:19:06.540Z,99.90
2023-03-20T01:21:33.859Z,99.90
2023-03-20T01:24:11.495Z,99.90
2023-03-20T01:26:47.904Z,99.90
2023-03-20T01:29:29.895Z,99.90
2023-03-20T01:31:58.291Z,99.90
2023-03-20T01:34:28.834Z,99.90
2023-03-20T01:37:00.295Z,99.90
2023-03-20T01:39:37.036Z,99.90
2023-03-20T01:42:07.597Z,99.90
2023-03-20T01:44:38.055Z,99.90
2023-03-20T01:47:20.737Z,99.90
2023-03-20T01:50:44.062Z,99.90
2023-03-20T01:53:39.412Z,99.90
2023-03-20T01:56:08.088Z,99.90
2023-03-20T01:58:49.054Z,99.90
2023-03-20T02:01:19.969Z,99.90
2023-03-20T02:03:52.912Z,99.90
2023-03-20T02:06:27.741Z,99.90
2023-03-20T02:09:09.018Z,99.90
2023-03-20T02:11:59.240Z,99.90
2023-03-20T02:14:28.593Z,99.90
2023-03-20T02:16:58.909Z,99.90
2023-03-20T02:19:56.218Z,99.90
2023-03-20T02:23:03.392Z,99.90
2023-03-20T02:26:06.336Z,99.90
2023-03-20T02:32:42.092Z,99.90
2023-03-20T02:35:43.004Z,99.90
2023-03-20T02:38:25.176Z,99.90
2023-03-20T02:41:00.371Z,99.90
2023-03-20T02:43:51.391Z,99.90
2023-03-20T02:46:45.418Z,99.90
2023-03-20T02:49:36.912Z,99.90
2023-03-20T02:52:08.155Z,99.90
2023-03-20T02:55:07.328Z,99.90
2023-03-20T02:57:58.549Z,99.90
2023-03-20T03:00:36.954Z,99.90
2023-03-20T03:03:15.082Z,99.90
2023-03-20T03:05:57.539Z,99.90
2023-03-20T03:08:29.016Z,99.90
2023-03-20T03:11:04.856Z,99.90
2023-03-20T03:13:35.352Z,99.90
2023-03-20T03:16:18.077Z,99.90
2023-03-20T03:18:46.796Z,99.90
2023-03-20T03:21:17.672Z,99.90
2023-03-20T03:23:49.494Z,99.90
2023-03-20T03:26:30.252Z,99.90
2023-03-20T03:29:05.082Z,99.90
2023-03-20T03:31:33.112Z,99.90
2023-03-20T03:34:01.935Z,99.90
2023-03-20T03:36:47.744Z,99.90
2023-03-20T03:39:31.356Z,99.90
2023-03-20T03:42:09.362Z,99.90
2023-03-20T03:44:54.596Z,99.90
2023-03-20T03:47:23.326Z,99.90
2023-03-20T03:49:57.336Z,99.90
2023-03-20T03:52:26.247Z,99.90
2023-03-20T03:55:03.416Z,99.90
2023-03-20T03:58:02.991Z,99.90
2023-03-20T04:00:32.695Z,99.90
2023-03-20T04:02:59.872Z,99.90
2023-03-20T04:05:35.315Z,99.90
2023-03-20T04:08:04.305Z,99.90
2023-03-20T04:10:31.321Z,99.90
2023-03-20T04:12:58.721Z,99.90
2023-03-20T04:15:28.017Z,99.90
2023-03-20T04:17:55.167Z,99.90
2023-03-20T04:20:23.325Z,99.90
2023-03-20T04:22:50.720Z,99.90
2023-03-20T04:25:24.486Z,99.90
2023-03-20T04:27:51.572Z,99.90
2023-03-20T04:30:19.034Z,99.90
2023-03-20T04:32:46.306Z,99.90
2023-03-20T04:35:13.812Z,99.90
2023-03-20T04:37:40.998Z,99.90
2023-03-20T04:40:08.522Z,99.90
2023-03-20T04:42:35.991Z,99.90
2023-03-20T04:45:03.092Z,99.90
2023-03-20T04:47:30.258Z,99.90
2023-03-20T04:49:57.261Z,99.90
2023-03-20T04:52:24.317Z,99.90
2023-03-20T04:54:51.378Z,99.90
2023-03-20T04:57:18.431Z,99.90
2023-03-20T04:59:45.459Z,99.90
2023-03-20T05:02:15.310Z,99.90
2023-03-20T05:04:42.974Z,99.90
2023-03-20T05:07:10.173Z,99.90
2023-03-20T05:09:37.411Z,99.90
2023-03-20T05:12:04.822Z,99.90
2023-03-20T05:14:32.035Z,99.90
2023-03-20T05:16:59.103Z,99.90
2023-03-20T05:19:26.417Z,99.90
2023-03-20T05:21:53.732Z,99.90
2023-03-20T05:24:21.222Z,99.90
2023-03-20T05:26:48.491Z,99.90
2023-03-20T05:29:15.791Z,99.90
2023-03-20T05:31:42.775Z,99.90
2023-03-20T05:34:09.839Z,99.90
2023-03-20T05:36:37.035Z,99.90
2023-03-20T05:39:04.783Z,99.90
2023-03-20T05:41:32.117Z,99.90
2023-03-20T05:43:59.582Z,99.90
2023-03-20T05:46:26.824Z,99.90
2023-03-20T05:48:54.021Z,99.90
2023-03-20T05:51:21.311Z,99.90
2023-03-20T05:53:48.406Z,99.90
2023-03-20T05:56:15.532Z,99.90
2023-03-20T05:58:42.666Z,99.90
2023-03-20T06:01:09.688Z,99.90
2023-03-20T06:03:37.295Z,99.90
2023-03-20T06:06:05.577Z,99.90
2023-03-20T06:08:32.674Z,99.90
2023-03-20T06:10:59.664Z,99.90
2023-03-20T06:13:26.980Z,99.90
2023-03-20T06:15:53.991Z,99.90
2023-03-20T06:18:21.111Z,99.90
2023-03-20T06:20:56.510Z,99.90
2023-03-20T06:23:23.552Z,99.90
2023-03-20T06:25:51.496Z,99.90
2023-03-20T06:28:18.681Z,99.90
2023-03-20T06:30:45.864Z,99.90
2023-03-20T06:33:13.103Z,99.90
2023-03-20T06:35:40.284Z,99.90
2023-03-20T06:38:08.016Z,99.90
2023-03-20T06:40:35.006Z,99.90
2023-03-20T06:43:02.216Z,99.90
2023-03-20T06:45:29.241Z,99.90
2023-03-20T06:47:56.554Z,99.90
2023-03-20T06:50:24.529Z,99.90
2023-03-20T06:52:52.452Z,99.90
2023-03-20T06:55:19.544Z,99.90
2023-03-20T06:57:46.764Z,99.90
2023-03-20T07:00:14.571Z,99.90
2023-03-20T07:02:41.769Z,99.90
2023-03-20T07:05:10.560Z,99.90
2023-03-20T07:07:37.662Z,99.90
2023-03-20T07:10:05.746Z,99.90
2023-03-20T07:12:33.088Z,99.90
2023-03-20T07:15:00.132Z,99.90
2023-03-20T07:17:27.448Z,99.90
2023-03-20T07:19:54.653Z,99.90
2023-03-20T07:22:26.686Z,99.90
2023-03-20T07:24:53.769Z,99.90
2023-03-20T07:27:21.486Z,99.90
2023-03-20T07:29:48.565Z,99.90
2023-03-20T07:32:16.751Z,99.90
2023-03-20T07:34:44.409Z,99.90
2023-03-20T07:37:11.540Z,99.90
2023-03-20T07:39:38.695Z,99.90
2023-03-20T07:42:06.076Z,99.90
2023-03-20T07:44:33.042Z,99.90
2023-03-20T07:47:00.194Z,99.90
2023-03-20T07:49:27.396Z,99.90
2023-03-20T07:51:55.106Z,99.90
2023-03-20T07:54:22.297Z,99.90
2023-03-20T07:56:49.982Z,99.90
2023-03-20T07:59:17.528Z,99.90
2023-03-20T08:01:44.971Z,99.90
2023-03-20T08:04:12.480Z,99.90
2023-03-20T08:06:39.764Z,99.90
2023-03-20T08:09:08.142Z,99.90
2023-03-20T08:11:35.277Z,99.90
2023-03-20T08:14:02.387Z,99.90
2023-03-20T08:16:29.502Z,99.90
2023-03-20T08:19:01.574Z,97.60
2023-03-20T08:21:30.337Z,96.60
2023-03-20T08:23:57.672Z,98.10
2023-03-20T08:26:25.507Z,99.90
2023-03-20T08:28:52.852Z,99.90
2023-03-20T08:31:20.172Z,99.90
2023-03-20T08:33:47.984Z,99.90
2023-03-20T08:36:16.262Z,99.90
2023-03-20T08:38:43.648Z,99.90
2023-03-20T08:41:10.924Z,99.90
2023-03-20T08:43:38.332Z,99.90
2023-03-20T08:46:05.854Z,99.90
2023-03-20T08:48:33.284Z,99.90
2023-03-20T08:51:00.439Z,99.90
2023-03-20T08:53:27.706Z,99.90
2023-03-20T08:55:54.875Z,99.90
2023-03-20T08:58:22.776Z,99.90
2023-03-20T09:00:50.143Z,99.90
2023-03-20T09:03:21.202Z,99.90
2023-03-20T09:05:52.614Z,99.90
2023-03-20T09:08:19.795Z,99.90
2023-03-20T09:10:48.874Z,99.90
2023-03-20T09:13:26.593Z,99.90
2023-03-20T09:15:55.280Z,99.90
2023-03-20T09:18:23.028Z,99.90
2023-03-20T09:20:50.116Z,99.90
2023-03-20T09:23:17.883Z,99.90
2023-03-20T09:25:45.399Z,99.90
2023-03-20T09:28:12.479Z,99.90
2023-03-20T09:30:39.578Z,99.90
2023-03-20T09:33:06.824Z,99.90
2023-03-20T09:35:34.009Z,99.90
2023-03-20T09:38:01.277Z,99.90
2023-03-20T09:40:52.586Z,99.90
2023-03-20T09:43:34.838Z,99.90
2023-03-20T09:46:28.455Z,99.90
2023-03-20T09:49:17.992Z,99.80
2023-03-20T09:52:16.970Z,99.40
2023-03-20T09:54:55.035Z,99.30
2023-03-20T09:57:26.550Z,98.20
2023-03-20T10:00:04.380Z,97.50
2023-03-20T10:02:51.731Z,97.90
2023-03-20T10:05:29.522Z,96.50
2023-03-20T10:07:59.911Z,96.30
2023-03-20T10:10:42.275Z,97.00
2023-03-20T10:13:34.988Z,97.00
2023-03-20T10:16:25.058Z,96.70
2023-03-20T10:19:02.264Z,96.90
2023-03-20T10:21:47.349Z,96.30
2023-03-20T10:24:28.822Z,94.50
2023-03-20T10:27:02.921Z,94.80
2023-03-20T10:29:54.804Z,95.60
2023-03-20T10:32:35.361Z,95.50
2023-03-20T10:35:12.261Z,95.10
2023-03-20T10:37:39.180Z,95.00
2023-03-20T10:40:39.586Z,95.10
2023-03-20T10:43:17.252Z,95.10
2023-03-20T10:45:54.192Z,94.40
2023-03-20T10:48:27.354Z,94.60
2023-03-20T10:50:57.455Z,94.90
2023-03-20T10:53:36.819Z,94.70
2023-03-20T10:56:09.062Z,95.50
2023-03-20T10:58:40.660Z,94.80
2023-03-20T11:01:08.048Z,95.50
2023-03-20T11:03:39.698Z,95.20
2023-03-20T11:06:25.536Z,94.50
2023-03-20T11:08:54.003Z,94.40
2023-03-20T11:11:28.226Z,94.70
2023-03-20T11:13:56.415Z,93.60
2023-03-20T11:16:33.083Z,94.70
2023-03-20T11:19:07.511Z,93.90
2023-03-20T11:21:44.588Z,94.40
2023-03-20T11:24:34.452Z,94.40
2023-03-20T11:27:17.881Z,93.30
2023-03-20T11:29:49.739Z,93.80
2023-03-20T11:32:33.660Z,93.80
2023-03-20T11:35:12.251Z,94.00
2023-03-20T11:37:46.660Z,94.40
2023-03-20T11:40:21.658Z,94.20
2023-03-20T11:43:00.849Z,93.40
2023-03-20T11:45:37.876Z,93.10
2023-03-20T11:48:06.890Z,93.20
2023-03-20T11:50:37.019Z,93.10
2023-03-20T11:53:39.810Z,93.30
2023-03-20T11:56:11.058Z,93.20
2023-03-20T11:58:49.641Z,93.20
2023-03-20T12:01:16.637Z,93.10
2023-03-20T12:03:55.970Z,93.20
2023-03-20T12:06:26.432Z,93.70
2023-03-20T12:09:02.839Z,93.70
2023-03-20T12:11:52.074Z,93.30
2023-03-20T12:14:31.762Z,92.70
2023-03-20T12:17:33.789Z,93.30
2023-03-20T12:20:11.579Z,93.10
2023-03-20T12:22:51.148Z,92.70
2023-03-20T12:25:35.535Z,92.80
2023-03-20T12:28:11.081Z,92.70
2023-03-20T12:30:44.197Z,92.80
2023-03-20T12:33:15.654Z,93.60
2023-03-20T12:35:47.635Z,93.60
2023-03-20T12:38:34.869Z,93.20
2023-03-20T12:41:21.626Z,93.50
2023-03-20T12:44:03.813Z,94.00
2023-03-20T12:46:43.041Z,93.70
2023-03-20T12:50:08.595Z,93.70
2023-03-20T12:52:49.914Z,93.60
2023-03-20T12:55:44.354Z,93.70
2023-03-20T12:58:34.367Z,93.10
2023-03-20T13:01:22.150Z,93.60
2023-03-20T13:04:21.307Z,93.60
2023-03-20T13:06:54.430Z,94.40
2023-03-20T13:09:49.666Z,94.00
2023-03-20T13:12:44.189Z,94.10
2023-03-20T13:15:29.394Z,93.50
2023-03-20T13:18:08.146Z,93.10
2023-03-20T13:20:47.285Z,93.30
2023-03-20T13:23:20.719Z,93.00
2023-03-20T13:26:08.426Z,93.30
2023-03-20T13:28:44.325Z,93.20
2023-03-20T13:31:26.766Z,93.10
2023-03-20T13:33:59.962Z,93.10
2023-03-20T13:36:45.539Z,92.70
2023-03-20T13:39:31.223Z,92.40
2023-03-20T13:42:01.077Z,92.30
2023-03-20T13:44:31.796Z,93.10
2023-03-20T13:47:09.628Z,94.20
2023-03-20T13:49:48.815Z,93.40
2023-03-20T13:52:23.208Z,92.60
2023-03-20T13:55:27.199Z,92.50
2023-03-20T13:58:32.460Z,93.30
2023-03-20T14:01:22.654Z,92.60
2023-03-20T14:03:52.084Z,92.80
2023-03-20T14:06:31.027Z,93.00
2023-03-20T14:08:59.641Z,93.00
2023-03-20T14:11:35.735Z,93.10
2023-03-20T14:14:28.399Z,92.90
2023-03-20T14:17:02.540Z,93.30
2023-03-20T14:19:30.051Z,92.40
2023-03-20T14:21:57.621Z,93.20
2023-03-20T14:24:27.328Z,93.30
2023-03-20T14:27:01.869Z,92.30
2023-03-20T14:29:39.065Z,91.50
2023-03-20T14:32:24.150Z,93.00
2023-03-20T14:34:53.195Z,92.50
2023-03-20T14:37:49.839Z,92.90
2023-03-20T14:40:20.351Z,93.30
2023-03-20T14:43:01.206Z,92.90
2023-03-20T14:45:42.024Z,92.70
2023-03-20T14:48:17.424Z,93.00
2023-03-20T14:50:47.467Z,92.80
2023-03-20T14:53:22.092Z,93.30
2023-03-20T14:55:49.148Z,93.10
2023-03-20T14:58:36.452Z,92.70
2023-03-20T15:01:06.195Z,92.50
2023-03-20T15:03:33.858Z,92.20
2023-03-20T15:06:05.682Z,83.80
2023-03-20T15:08:36.192Z,86.40
2023-03-20T15:11:09.545Z,90.00
2023-03-20T15:13:40.248Z,91.60
2023-03-20T15:16:10.455Z,93.90
2023-03-20T15:18:43.588Z,94.00
2023-03-20T15:21:33.131Z,95.30
2023-03-20T15:24:01.618Z,99.90
2023-03-20T15:26:30.341Z,99.90
2023-03-20T15:29:06.294Z,99.90
2023-03-20T15:31:41.074Z,99.90
2023-03-20T15:34:24.284Z,99.90
2023-03-20T15:37:01.947Z,99.90
2023-03-20T15:39:41.648Z,99.90
2023-03-20T15:42:17.072Z,99.90
2023-03-20T15:44:50.005Z,99.70
2023-03-20T15:47:25.192Z,99.90
2023-03-20T15:49:58.266Z,99.90
2023-03-20T15:52:56.612Z,99.90
2023-03-20T15:55:26.072Z,99.90
2023-03-20T15:58:00.385Z,99.90
2023-03-20T16:01:00.700Z,99.90
2023-03-20T16:03:39.947Z,99.90
2023-03-20T16:06:12.025Z,99.90
2023-03-20T16:08:42.815Z,99.60
2023-03-20T16:11:21.812Z,99.70
2023-03-20T16:13:56.755Z,99.70
2023-03-20T16:16:27.784Z,99.60
2023-03-20T16:18:59.302Z,99.00
2023-03-20T16:22:10.047Z,98.40
2023-03-20T16:24:43.160Z,98.70
2023-03-20T16:27:14.237Z,99.10
2023-03-20T16:29:44.819Z,99.00
2023-03-20T16:32:42.568Z,98.90
2023-03-20T16:35:20.543Z,98.80
2023-03-20T16:37:54.403Z,98.90
2023-03-20T16:40:38.602Z,99.20
2023-03-20T16:43:30.260Z,99.10
2023-03-20T16:46:05.953Z,99.40
2023-03-20T16:48:40.231Z,99.60
2023-03-20T16:51:32.140Z,99.50
2023-03-20T16:54:12.041Z,99.40
2023-03-20T16:56:40.896Z,99.50
2023-03-20T16:59:28.373Z,99.50
2023-03-20T17:02:10.541Z,99.50
2023-03-20T17:04:46.457Z,99.60
2023-03-20T17:07:28.692Z,99.70
2023-03-20T17:10:23.095Z,99.70
2023-03-20T17:12:52.041Z,99.80
2023-03-20T17:15:23.713Z,99.80
2023-03-20T17:17:52.481Z,99.80
2023-03-20T17:20:38.177Z,99.70
2023-03-20T17:23:13.897Z,99.90
2023-03-20T17:25:44.941Z,99.90
2023-03-20T17:28:23.332Z,99.90
2023-03-20T17:30:52.337Z,99.90
2023-03-20T17:33:21.744Z,99.90
2023-03-20T17:35:51.644Z,99.90
2023-03-20T17:38:26.136Z,99.90
2023-03-20T17:40:56.203Z,99.90
2023-03-20T17:43:23.984Z,99.90
2023-03-20T17:45:54.574Z,99.90
2023-03-20T17:48:25.477Z,99.90
2023-03-20T17:51:02.751Z,99.90
2023-03-20T17:53:32.652Z,99.90
2023-03-20T17:56:01.489Z,99.90
2023-03-20T17:58:38.377Z,99.90
2023-03-20T18:01:09.954Z,99.90
2023-03-20T18:03:40.378Z,99.90
2023-03-20T18:06:31.240Z,99.90
2023-03-20T18:09:05.699Z,99.90
2023-03-20T18:11:38.199Z,99.90
2023-03-20T18:14:09.333Z,99.90
2023-03-20T18:16:38.033Z,99.90
2023-03-20T18:19:13.802Z,99.90
2023-03-20T18:21:44.418Z,99.90
2023-03-20T18:24:11.657Z,99.90
2023-03-20T18:26:42.019Z,99.90
2023-03-20T18:29:11.418Z,99.90
2023-03-20T18:31:42.630Z,99.90
2023-03-20T18:34:13.934Z,99.90
2023-03-20T18:36:42.320Z,99.90
2023-03-20T18:39:21.227Z,99.90
2023-03-20T18:41:51.764Z,99.90
2023-03-20T18:44:19.474Z,99.90
2023-03-20T18:46:48.169Z,99.90
2023-03-20T18:49:17.419Z,99.90
2023-03-20T18:51:54.790Z,99.90
2023-03-20T18:54:23.086Z,99.90
2023-03-20T18:56:52.741Z,99.90
2023-03-20T18:59:23.286Z,99.90
2023-03-20T19:01:53.878Z,99.90
2023-03-20T19:04:33.421Z,99.90
2023-03-20T19:07:02.130Z,99.90
2023-03-20T19:09:30.835Z,99.90
2023-03-20T19:11:57.931Z,99.90
2023-03-20T19:14:32.992Z,99.90
2023-03-20T19:17:03.485Z,99.90
2023-03-20T19:19:30.752Z,99.90
2023-03-20T19:21:59.692Z,99.90
2023-03-20T19:24:29.098Z,99.90
2023-03-20T19:26:57.711Z,99.90
2023-03-20T19:29:28.202Z,99.90
2023-03-20T19:31:56.888Z,99.90
2023-03-20T19:35:10.839Z,99.90
2023-03-20T19:37:18.847Z,99.90
2023-03-20T19:39:48.340Z,99.90
2023-03-20T19:42:47.406Z,99.90
2023-03-20T19:45:08.920Z,99.90
2023-03-20T19:47:37.244Z,99.90
2023-03-20T19:50:06.877Z,99.90
2023-03-20T19:52:43.709Z,99.90
2023-03-20T19:55:13.539Z,99.90
2023-03-20T19:57:43.135Z,99.90
2023-03-20T20:03:11.907Z,99.90
2023-03-20T20:05:40.191Z,99.90
2023-03-20T20:08:27.693Z,99.90
2023-03-20T20:10:58.273Z,99.90
2023-03-20T20:13:33.062Z,99.90
2023-03-20T20:16:11.637Z,99.90
2023-03-20T20:18:48.088Z,99.90
2023-03-20T20:24:06.208Z,99.90
2023-03-20T20:26:38.976Z,99.90
2023-03-20T20:29:18.821Z,99.90
2023-03-20T20:31:49.546Z,99.90
2023-03-20T20:39:57.302Z,99.90
2023-03-20T20:42:28.946Z,99.90
2023-03-20T20:44:56.033Z,99.90
2023-03-20T20:47:25.544Z,99.90
2023-03-20T20:49:54.067Z,99.90
2023-03-20T20:52:30.468Z,99.90
2023-03-20T20:54:59.464Z,99.90
2023-03-20T20:57:33.920Z,99.90
2023-03-20T21:00:05.810Z,99.90
2023-03-20T21:02:37.042Z,99.90
2023-03-20T21:05:07.960Z,99.90
2023-03-20T21:07:36.569Z,99.90
2023-03-20T21:10:07.049Z,99.90
2023-03-20T21:12:48.395Z,99.90
2023-03-20T21:15:26.760Z,99.90
2023-03-20T21:18:01.172Z,99.90
2023-03-20T21:20:33.477Z,99.90
2023-03-20T21:23:03.084Z,99.90
2023-03-20T21:25:42.575Z,99.90
2023-03-20T21:28:25.584Z,99.90
2023-03-20T21:31:20.877Z,99.90
2023-03-20T21:33:43.924Z,99.90
2023-03-20T21:36:16.758Z,99.90
2023-03-20T21:39:06.703Z,99.90
2023-03-20T21:41:34.208Z,99.90
2023-03-20T21:44:03.700Z,99.90
2023-03-20T21:50:17.471Z,99.90
2023-03-20T21:55:52.215Z,99.90
2023-03-20T22:01:23.217Z,99.90
2023-03-20T22:04:01.594Z,99.90
2023-03-20T22:09:54.729Z,99.90
2023-03-20T22:18:12.160Z,99.90
2023-03-20T22:32:38.494Z,99.90
2023-03-20T22:38:08.954Z,99.90
2023-03-20T22:41:11.039Z,99.90
2023-03-20T22:46:10.125Z,99.90
2023-03-20T22:48:46.888Z,99.90
2023-03-20T22:51:16.446Z,99.90
2023-03-20T22:53:46.460Z,99.90
2023-03-20T22:56:16.883Z,99.90
2023-03-20T22:58:44.941Z,99.90
2023-03-20T23:01:13.262Z,99.90
2023-03-20T23:03:43.820Z,99.90
2023-03-20T23:06:27.820Z,99.90
2023-03-20T23:09:08.896Z,99.90
2023-03-20T23:11:41.340Z,99.90
2023-03-20T23:14:21.687Z,99.90
2023-03-20T23:16:49.485Z,99.90
2023-03-20T23:19:20.289Z,99.90
2023-03-20T23:21:58.901Z,99.90
2023-03-20T23:24:27.301Z,99.90
2023-03-20T23:27:03.824Z,99.90
2023-03-20T23:29:31.581Z,99.90
2023-03-20T23:32:02.283Z,99.90
2023-03-20T23:34:31.911Z,99.90
2023-03-20T23:37:02.825Z,99.90
2023-03-20T23:39:31.442Z,99.90
2023-03-20T23:42:11.987Z,99.90
2023-03-20T23:44:56.496Z,99.90
2023-03-20T23:47:30.000Z,99.90
2023-03-20T23:50:06.542Z,99.90
2023-03-20T23:52:40.744Z,99.90
2023-03-20T23:55:14.816Z,99.90
2023-03-20T23:57:43.439Z,99.90
